createdAt,value
2023-04-03T00:01:47.203Z,-0.19
2023-04-03T00:04:13.649Z,-0.24
2023-04-03T00:06:39.958Z,-0.27
2023-04-03T00:09:07.293Z,-0.21
2023-04-03T00:11:34.991Z,-0.24
2023-04-03T00:14:01.380Z,-0.25
2023-04-03T00:16:27.798Z,-0.27
2023-04-03T00:18:54.148Z,-0.31
2023-04-03T00:21:20.467Z,-0.34
2023-04-03T00:23:46.800Z,-0.35
2023-04-03T00:26:13.199Z,-0.31
2023-04-03T00:28:39.513Z,-0.27
2023-04-03T00:31:05.865Z,-0.36
2023-04-03T00:33:32.200Z,-0.41
2023-04-03T00:35:58.660Z,-0.38
2023-04-03T00:38:25.025Z,-0.43
2023-04-03T00:40:51.554Z,-0.43
2023-04-03T00:43:20.763Z,-0.44
2023-04-03T00:45:49.814Z,-0.45
2023-04-03T00:48:23.442Z,-0.51
2023-04-03T00:50:50.580Z,-0.52
2023-04-03T00:53:23.076Z,-0.49
2023-04-03T00:55:51.775Z,-0.50
2023-04-03T00:58:21.593Z,-0.53
2023-04-03T01:00:54.703Z,-0.55
2023-04-03T01:03:21.045Z,-0.58
2023-04-03T01:05:47.390Z,-0.59
2023-04-03T01:08:13.701Z,-0.66
2023-04-03T01:10:40.052Z,-0.64
2023-04-03T01:13:23.588Z,-0.67
2023-04-03T01:15:49.971Z,-0.70
2023-04-03T01:18:16.300Z,-0.75
2023-04-03T01:21:16.769Z,-0.70
2023-04-03T01:23:49.429Z,-0.77
2023-04-03T01:26:16.359Z,-0.81
2023-04-03T01:28:42.671Z,-0.83
2023-04-03T01:31:25.960Z,-0.83
2023-04-03T01:33:52.879Z,-0.83
2023-04-03T01:36:23.849Z,-0.80
2023-04-03T01:38:50.160Z,-0.82
2023-04-03T01:41:16.825Z,-0.88
2023-04-03T01:43:43.414Z,-0.90
2023-04-03T01:46:09.891Z,-0.89
2023-04-03T01:48:36.650Z,-0.92
2023-04-03T01:51:03.188Z,-0.86
2023-04-03T01:53:30.344Z,-0.89
2023-04-03T01:55:56.676Z,-0.90
2023-04-03T01:58:22.991Z,-0.91
2023-04-03T02:00:49.497Z,-0.90
2023-04-03T02:03:15.861Z,-0.94
2023-04-03T02:05:42.192Z,-0.92
2023-04-03T02:08:08.520Z,-0.97
2023-04-03T02:10:35.191Z,-0.94
2023-04-03T02:13:01.725Z,-0.98
2023-04-03T02:15:28.069Z,-1.02
2023-04-03T02:17:54.417Z,-1.03
2023-04-03T02:20:21.642Z,-0.99
2023-04-03T02:22:48.142Z,-0.98
2023-04-03T02:25:14.599Z,-1.00
2023-04-03T02:27:41.124Z,-0.97
2023-04-03T02:30:08.249Z,-0.98
2023-04-03T02:32:34.554Z,-0.96
2023-04-03T02:35:01.887Z,-0.99
2023-04-03T02:37:28.219Z,-1.00
2023-04-03T02:39:54.518Z,-0.96
2023-04-03T02:42:20.821Z,-0.97
2023-04-03T02:44:47.110Z,-0.93
2023-04-03T02:47:13.419Z,-0.95
2023-04-03T02:49:39.719Z,-1.02
2023-04-03T02:52:06.023Z,-1.01
2023-04-03T02:54:32.317Z,-1.04
2023-04-03T02:56:58.951Z,-1.02
2023-04-03T02:59:25.827Z,-1.02
2023-04-03T03:01:52.196Z,-0.99
2023-04-03T03:04:18.729Z,-1.01
2023-04-03T03:06:45.140Z,-1.07
2023-04-03T03:09:11.635Z,-1.05
2023-04-03T03:11:37.959Z,-1.14
2023-04-03T03:14:04.282Z,-1.13
2023-04-03T03:16:30.888Z,-1.05
2023-04-03T03:18:57.985Z,-1.13
2023-04-03T03:21:25.352Z,-1.12
2023-04-03T03:23:51.656Z,-1.07
2023-04-03T03:26:17.970Z,-1.20
2023-04-03T03:28:44.266Z,-1.21
2023-04-03T03:31:10.814Z,-1.24
2023-04-03T03:33:37.289Z,-1.25
2023-04-03T03:36:04.004Z,-1.25
2023-04-03T03:38:30.529Z,-1.23
2023-04-03T03:40:56.846Z,-1.24
2023-04-03T03:43:23.201Z,-1.31
2023-04-03T03:45:53.814Z,-1.31
2023-04-03T03:48:21.395Z,-1.31
2023-04-03T03:50:48.744Z,-1.34
2023-04-03T03:53:15.254Z,-1.41
2023-04-03T03:55:42.065Z,-1.42
2023-04-03T03:58:09.014Z,-1.39
2023-04-03T04:00:35.392Z,-1.47
2023-04-03T04:03:01.827Z,-1.42
2023-04-03T04:05:28.307Z,-1.49
2023-04-03T04:07:54.643Z,-1.48
2023-04-03T04:10:20.985Z,-1.44
2023-04-03T04:12:47.314Z,-1.52
2023-04-03T04:15:13.708Z,-1.54
2023-04-03T04:17:40.116Z,-1.57
2023-04-03T04:20:06.976Z,-1.63
2023-04-03T04:22:33.498Z,-1.57
2023-04-03T04:24:59.839Z,-1.54
2023-04-03T04:27:26.161Z,-1.63
2023-04-03T04:29:52.458Z,-1.63
2023-04-03T04:32:18.728Z,-1.61
2023-04-03T04:34:45.034Z,-1.60
2023-04-03T04:37:11.390Z,-1.56
2023-04-03T04:39:37.670Z,-1.60
2023-04-03T04:42:04.021Z,-1.63
2023-04-03T04:44:30.323Z,-1.64
2023-04-03T04:46:56.654Z,-1.68
2023-04-03T04:49:22.966Z,-1.66
2023-04-03T04:51:52.272Z,-1.65
2023-04-03T04:54:21.572Z,-1.63
2023-04-03T04:56:47.974Z,-1.65
2023-04-03T04:59:14.297Z,-1.64
2023-04-03T05:01:40.602Z,-1.65
2023-04-03T05:04:06.933Z,-1.60
2023-04-03T05:06:33.300Z,-1.56
2023-04-03T05:09:00.236Z,-1.50
2023-04-03T05:11:26.732Z,-1.54
2023-04-03T05:13:53.183Z,-1.41
2023-04-03T05:16:19.544Z,-1.36
2023-04-03T05:18:45.914Z,-1.38
2023-04-03T05:21:12.257Z,-1.33
2023-04-03T05:23:38.602Z,-1.30
2023-04-03T05:26:05.027Z,-1.25
2023-04-03T05:28:31.341Z,-1.14
2023-04-03T05:30:59.138Z,-1.06
2023-04-03T05:33:26.446Z,-1.04
2023-04-03T05:35:53.826Z,-1.02
2023-04-03T05:38:20.294Z,-0.95
2023-04-03T05:40:46.774Z,-0.89
2023-04-03T05:43:13.182Z,-0.79
2023-04-03T05:45:39.512Z,-0.73
2023-04-03T05:48:05.944Z,-0.65
2023-04-03T05:50:32.271Z,-0.59
2023-04-03T05:52:59.792Z,-0.53
2023-04-03T05:55:26.132Z,-0.47
2023-04-03T05:57:52.426Z,-0.39
2023-04-03T06:00:19.275Z,-0.33
2023-04-03T06:02:45.691Z,-0.26
2023-04-03T06:05:12.065Z,-0.15
2023-04-03T06:07:38.434Z,-0.08
2023-04-03T06:10:05.571Z,0.00
2023-04-03T06:12:31.912Z,0.00
2023-04-03T06:14:58.377Z,0.06
2023-04-03T06:17:24.790Z,0.13
2023-04-03T06:19:51.211Z,0.16
2023-04-03T06:22:17.586Z,0.24
2023-04-03T06:24:43.919Z,0.29
2023-04-03T06:27:12.132Z,0.35
2023-04-03T06:29:38.453Z,0.41
2023-04-03T06:32:05.001Z,0.48
2023-04-03T06:34:31.294Z,0.54
2023-04-03T06:36:57.622Z,0.63
2023-04-03T06:39:24.007Z,0.67
2023-04-03T06:41:51.253Z,0.80
2023-04-03T06:44:19.266Z,0.91
2023-04-03T06:46:45.905Z,0.92
2023-04-03T06:49:12.251Z,1.01
2023-04-03T06:51:38.607Z,1.04
2023-04-03T06:54:06.337Z,1.13
2023-04-03T06:56:33.372Z,1.23
2023-04-03T06:58:59.678Z,1.27
2023-04-03T07:01:27.783Z,1.43
2023-04-03T07:03:54.844Z,1.48
2023-04-03T07:06:21.984Z,1.50
2023-04-03T07:08:48.624Z,1.48
2023-04-03T07:11:14.993Z,1.51
2023-04-03T07:13:41.756Z,1.30
2023-04-03T07:16:09.640Z,1.28
2023-04-03T07:18:36.479Z,1.13
2023-04-03T07:21:03.816Z,1.16
2023-04-03T07:23:30.554Z,1.20
2023-04-03T07:25:56.989Z,1.29
2023-04-03T07:28:24.280Z,1.34
2023-04-03T07:30:59.909Z,1.48
2023-04-03T07:33:26.904Z,1.62
2023-04-03T07:35:53.700Z,1.85
2023-04-03T07:38:19.994Z,1.99
2023-04-03T07:40:48.645Z,2.10
2023-04-03T07:43:15.943Z,2.11
2023-04-03T07:45:42.979Z,2.14
2023-04-03T07:48:09.945Z,2.09
2023-04-03T07:50:36.235Z,2.14
2023-04-03T07:53:03.117Z,2.26
2023-04-03T07:55:29.537Z,2.36
2023-04-03T07:57:55.843Z,2.51
2023-04-03T08:00:22.213Z,2.54
2023-04-03T08:02:48.598Z,2.50
2023-04-03T08:05:14.971Z,2.37
2023-04-03T08:07:41.294Z,2.36
2023-04-03T08:10:07.915Z,2.26
2023-04-03T08:12:34.251Z,2.27
2023-04-03T08:15:01.201Z,2.27
2023-04-03T08:17:28.046Z,2.21
2023-04-03T08:19:54.356Z,2.15
2023-04-03T08:22:20.669Z,2.12
2023-04-03T08:24:58.557Z,2.13
2023-04-03T08:27:25.772Z,2.40
2023-04-03T08:29:52.068Z,2.43
2023-04-03T08:32:18.641Z,2.52
2023-04-03T08:34:44.994Z,2.68
2023-04-03T08:37:11.352Z,2.75
2023-04-03T08:39:37.725Z,2.73
2023-04-03T08:42:16.131Z,2.72
2023-04-03T08:45:27.430Z,2.90
2023-04-03T08:48:01.079Z,3.06
2023-04-03T08:50:35.932Z,3.23
2023-04-03T08:53:03.678Z,3.39
2023-04-03T08:55:32.708Z,3.30
2023-04-03T08:58:03.379Z,3.27
2023-04-03T09:00:38.497Z,3.16
2023-04-03T09:03:04.859Z,3.37
2023-04-03T09:05:41.272Z,3.89
2023-04-03T09:08:28.028Z,4.12
2023-04-03T09:11:06.685Z,4.26
2023-04-03T09:13:32.929Z,4.17
2023-04-03T09:16:03.187Z,4.22
2023-04-03T09:18:40.931Z,4.40
2023-04-03T09:21:25.585Z,4.35
2023-04-03T09:23:58.874Z,4.21
2023-04-03T09:26:51.337Z,4.21
2023-04-03T09:29:24.404Z,4.18
2023-04-03T09:31:56.970Z,4.20
2023-04-03T09:34:31.038Z,4.30
2023-04-03T09:37:00.355Z,4.35
2023-04-03T09:39:29.522Z,4.51
2023-04-03T09:42:44.051Z,4.47
2023-04-03T09:45:25.777Z,4.52
2023-04-03T09:48:08.337Z,4.35
2023-04-03T09:50:36.956Z,4.14
2023-04-03T09:53:08.467Z,4.07
2023-04-03T09:55:44.259Z,4.08
2023-04-03T09:58:36.102Z,3.91
2023-04-03T10:01:42.462Z,3.81
2023-04-03T10:04:18.204Z,3.77
2023-04-03T10:06:49.906Z,3.75
2023-04-03T10:09:31.016Z,3.90
2023-04-03T10:12:12.883Z,4.45
2023-04-03T10:14:41.268Z,4.91
2023-04-03T10:17:17.059Z,4.89
2023-04-03T10:19:55.003Z,4.73
2023-04-03T10:22:39.408Z,4.56
2023-04-03T10:25:22.798Z,4.54
2023-04-03T10:28:31.960Z,4.54
2023-04-03T10:31:09.645Z,4.44
2023-04-03T10:33:48.132Z,4.48
2023-04-03T10:36:51.671Z,4.53
2023-04-03T10:39:27.578Z,4.73
2023-04-03T10:42:19.952Z,4.91
2023-04-03T10:45:00.830Z,4.96
2023-04-03T10:48:08.830Z,4.67
2023-04-03T10:50:48.140Z,4.41
2023-04-03T10:53:42.138Z,4.41
2023-04-03T10:56:08.391Z,4.32
2023-04-03T10:58:42.682Z,4.13
2023-04-03T11:01:22.896Z,3.95
2023-04-03T11:03:57.790Z,4.09
2023-04-03T11:06:29.032Z,4.11
2023-04-03T11:09:02.080Z,4.10
2023-04-03T11:11:33.041Z,4.04
2023-04-03T11:14:10.566Z,4.15
2023-04-03T11:16:51.075Z,4.05
2023-04-03T11:19:24.097Z,4.07
2023-04-03T11:21:57.786Z,4.28
2023-04-03T11:24:26.634Z,4.28
2023-04-03T11:26:55.039Z,4.57
2023-04-03T11:29:35.117Z,4.75
2023-04-03T11:32:24.273Z,4.66
2023-04-03T11:34:55.216Z,4.82
2023-04-03T11:37:31.981Z,4.85
2023-04-03T11:40:02.590Z,4.88
2023-04-03T11:42:39.216Z,4.89
2023-04-03T11:45:23.800Z,5.22
2023-04-03T11:47:53.779Z,5.14
2023-04-03T11:50:44.229Z,4.89
2023-04-03T11:53:13.270Z,4.95
2023-04-03T11:55:50.264Z,4.68
2023-04-03T11:58:21.658Z,4.67
2023-04-03T12:01:01.732Z,4.53
2023-04-03T12:03:32.042Z,4.51
2023-04-03T12:06:18.379Z,4.47
2023-04-03T12:08:47.961Z,4.60
2023-04-03T12:11:14.469Z,4.60
2023-04-03T12:13:49.972Z,4.79
2023-04-03T12:16:21.766Z,4.95
2023-04-03T12:18:53.841Z,5.14
2023-04-03T12:21:23.082Z,5.24
2023-04-03T12:24:23.638Z,5.11
2023-04-03T12:27:03.342Z,4.79
2023-04-03T12:29:32.708Z,4.75
2023-04-03T12:32:17.696Z,4.94
2023-04-03T12:34:46.959Z,4.94
2023-04-03T12:37:31.519Z,4.93
2023-04-03T12:40:10.056Z,4.99
2023-04-03T12:42:42.435Z,5.06
2023-04-03T12:45:23.459Z,5.14
2023-04-03T12:47:52.438Z,5.12
2023-04-03T12:50:24.927Z,5.06
2023-04-03T12:52:58.370Z,5.00
2023-04-03T12:55:24.721Z,4.92
2023-04-03T12:57:51.060Z,4.88
2023-04-03T13:00:36.045Z,4.86
2023-04-03T13:03:04.390Z,4.96
2023-04-03T13:05:33.020Z,5.22
2023-04-03T13:08:03.924Z,5.30
2023-04-03T13:10:30.655Z,5.34
2023-04-03T13:12:59.435Z,5.24
2023-04-03T13:15:28.842Z,5.10
2023-04-03T13:17:55.280Z,4.90
2023-04-03T13:20:28.508Z,4.82
2023-04-03T13:23:04.513Z,4.71
2023-04-03T13:25:33.754Z,4.68
2023-04-03T13:28:13.344Z,4.66
2023-04-03T13:30:42.359Z,4.71
2023-04-03T13:33:27.714Z,4.69
2023-04-03T13:36:19.391Z,4.70
2023-04-03T13:38:45.864Z,4.81
2023-04-03T13:41:26.876Z,4.91
2023-04-03T13:43:57.559Z,4.82
2023-04-03T13:46:28.633Z,4.99
2023-04-03T13:48:57.208Z,5.05
2023-04-03T13:51:29.432Z,4.87
2023-04-03T13:54:00.570Z,4.97
2023-04-03T13:56:31.390Z,5.02
2023-04-03T13:59:12.765Z,5.00
2023-04-03T14:01:41.918Z,5.09
2023-04-03T14:04:22.322Z,5.07
2023-04-03T14:06:49.335Z,4.98
2023-04-03T14:09:18.020Z,5.11
2023-04-03T14:11:44.746Z,5.37
2023-04-03T14:14:18.151Z,5.56
2023-04-03T14:16:47.828Z,5.72
2023-04-03T14:19:26.646Z,5.61
2023-04-03T14:21:55.088Z,5.60
2023-04-03T14:24:21.546Z,5.06
2023-04-03T14:26:49.432Z,4.91
2023-04-03T14:29:15.946Z,4.83
2023-04-03T14:31:44.815Z,4.92
2023-04-03T14:34:12.638Z,4.65
2023-04-03T14:36:40.307Z,4.58
2023-04-03T14:39:08.094Z,4.56
2023-04-03T14:41:34.427Z,4.54
2023-04-03T14:44:00.757Z,4.46
2023-04-03T14:46:48.404Z,4.49
2023-04-03T14:49:22.077Z,4.33
2023-04-03T14:51:48.752Z,4.29
2023-04-03T14:54:18.150Z,4.25
2023-04-03T14:56:44.551Z,4.26
2023-04-03T14:59:13.928Z,4.18
2023-04-03T15:01:40.303Z,4.07
2023-04-03T15:04:13.955Z,4.11
2023-04-03T15:06:40.974Z,4.02
2023-04-03T15:09:25.115Z,4.06
2023-04-03T15:11:52.976Z,3.93
2023-04-03T15:14:29.932Z,3.97
2023-04-03T15:17:04.920Z,3.92
2023-04-03T15:19:39.529Z,3.92
2023-04-03T15:22:06.298Z,3.94
2023-04-03T15:24:32.640Z,4.00
2023-04-03T15:27:00.848Z,4.03
2023-04-03T15:29:28.004Z,4.03
2023-04-03T15:31:54.598Z,4.04
2023-04-03T15:34:21.105Z,4.03
2023-04-03T15:36:47.877Z,3.92
2023-04-03T15:39:14.168Z,3.82
2023-04-03T15:41:40.492Z,3.81
2023-04-03T15:44:06.815Z,3.84
2023-04-03T15:46:33.546Z,4.02
2023-04-03T15:48:59.944Z,4.07
2023-04-03T15:51:26.262Z,4.18
2023-04-03T15:53:52.538Z,4.29
2023-04-03T15:56:18.846Z,4.39
2023-04-03T15:58:45.145Z,4.43
2023-04-03T16:01:12.020Z,4.54
2023-04-03T16:03:40.573Z,4.60
2023-04-03T16:06:07.004Z,4.61
2023-04-03T16:08:33.326Z,4.54
2023-04-03T16:10:59.674Z,4.42
2023-04-03T16:13:26.015Z,4.30
2023-04-03T16:15:52.357Z,4.17
2023-04-03T16:18:18.729Z,4.18
2023-04-03T16:20:45.167Z,4.11
2023-04-03T16:23:12.590Z,4.09
2023-04-03T16:25:38.963Z,4.07
2023-04-03T16:28:05.676Z,4.07
2023-04-03T16:30:32.072Z,3.94
2023-04-03T16:32:58.517Z,3.91
2023-04-03T16:35:25.009Z,3.80
2023-04-03T16:37:51.284Z,3.72
2023-04-03T16:40:17.659Z,3.82
2023-04-03T16:42:43.935Z,3.65
2023-04-03T16:45:11.596Z,3.65
2023-04-03T16:47:38.254Z,3.62
2023-04-03T16:50:05.402Z,3.62
2023-04-03T16:52:31.808Z,3.59
2023-04-03T16:54:58.118Z,3.56
2023-04-03T16:57:24.448Z,3.55
2023-04-03T16:59:50.828Z,3.57
2023-04-03T17:02:17.145Z,3.52
2023-04-03T17:04:43.593Z,3.51
2023-04-03T17:07:09.920Z,3.53
2023-04-03T17:09:36.217Z,3.51
2023-04-03T17:12:02.608Z,3.47
2023-04-03T17:14:29.029Z,3.49
2023-04-03T17:16:55.420Z,3.48
2023-04-03T17:19:28.839Z,3.46
2023-04-03T17:21:55.366Z,3.44
2023-04-03T17:24:21.682Z,3.37
2023-04-03T17:26:48.028Z,3.33
2023-04-03T17:29:14.470Z,3.38
2023-04-03T17:31:40.871Z,3.32
2023-04-03T17:34:07.525Z,3.22
2023-04-03T17:36:34.371Z,3.29
2023-04-03T17:39:00.848Z,3.26
2023-04-03T17:41:27.194Z,3.23
2023-04-03T17:43:53.549Z,3.16
2023-04-03T17:46:19.981Z,3.11
2023-04-03T17:48:46.305Z,3.09
2023-04-03T17:51:15.774Z,3.09
2023-04-03T17:53:42.965Z,3.10
2023-04-03T17:56:12.892Z,3.04
2023-04-03T17:58:39.247Z,2.98
2023-04-03T18:01:12.803Z,2.96
2023-04-03T18:03:39.246Z,2.98
2023-04-03T18:06:10.017Z,2.93
2023-04-03T18:08:43.694Z,2.86
2023-04-03T18:11:10.590Z,2.86
2023-04-03T18:13:37.118Z,2.85
2023-04-03T18:16:07.070Z,2.81
2023-04-03T18:18:33.428Z,2.72
2023-04-03T18:20:59.869Z,2.70
2023-04-03T18:23:28.615Z,2.71
2023-04-03T18:25:55.315Z,2.66
2023-04-03T18:28:21.674Z,2.63
2023-04-03T18:30:48.706Z,2.67
2023-04-03T18:33:14.998Z,2.65
2023-04-03T18:35:41.625Z,2.64
2023-04-03T18:38:08.032Z,2.61
2023-04-03T18:40:34.792Z,2.56
2023-04-03T18:43:02.093Z,2.51
2023-04-03T18:45:28.980Z,2.53
2023-04-03T18:47:56.455Z,2.49
2023-04-03T18:50:22.822Z,2.48
2023-04-03T18:52:49.110Z,2.47
2023-04-03T18:55:15.566Z,2.43
2023-04-03T18:57:41.884Z,2.51
2023-04-03T19:00:08.628Z,2.41
2023-04-03T19:02:35.085Z,2.38
2023-04-03T19:05:01.553Z,2.36
2023-04-03T19:07:28.351Z,2.34
2023-04-03T19:09:55.254Z,2.39
2023-04-03T19:12:21.624Z,2.35
2023-04-03T19:14:47.948Z,2.32
2023-04-03T19:17:14.244Z,2.34
2023-04-03T19:19:40.593Z,2.35
2023-04-03T19:22:06.895Z,2.35
2023-04-03T19:24:33.657Z,2.32
2023-04-03T19:26:59.987Z,2.32
2023-04-03T19:29:26.277Z,2.33
2023-04-03T19:31:52.598Z,2.29
2023-04-03T19:34:18.964Z,2.22
2023-04-03T19:36:45.267Z,2.22
2023-04-03T19:39:13.974Z,2.19
2023-04-03T19:41:42.074Z,2.18
2023-04-03T19:44:08.625Z,2.24
2023-04-03T19:46:35.876Z,2.18
2023-04-03T19:49:02.622Z,2.16
2023-04-03T19:51:28.942Z,2.10
2023-04-03T19:53:55.222Z,2.04
2023-04-03T19:56:21.588Z,1.92
2023-04-03T19:58:47.985Z,1.86
2023-04-03T20:01:14.307Z,1.87
2023-04-03T20:03:40.600Z,1.80
2023-04-03T20:06:06.954Z,1.77
2023-04-03T20:08:33.309Z,1.73
2023-04-03T20:10:59.698Z,1.75
2023-04-03T20:13:26.089Z,1.71
2023-04-03T20:15:52.458Z,1.71
2023-04-03T20:18:20.475Z,1.68
2023-04-03T20:20:54.477Z,1.70
2023-04-03T20:23:21.074Z,1.60
2023-04-03T20:26:01.503Z,1.59
2023-04-03T20:28:35.212Z,1.59
2023-04-03T20:31:01.564Z,1.62
2023-04-03T20:33:28.360Z,1.62
2023-04-03T20:35:58.257Z,1.61
2023-04-03T20:38:25.003Z,1.56
2023-04-03T20:40:51.325Z,1.60
2023-04-03T20:43:17.644Z,1.62
2023-04-03T20:45:43.970Z,1.57
2023-04-03T20:48:10.797Z,1.52
2023-04-03T20:50:37.187Z,1.55
2023-04-03T20:53:03.506Z,1.53
2023-04-03T20:55:29.927Z,1.51
2023-04-03T20:57:56.303Z,1.41
2023-04-03T21:00:22.754Z,1.38
2023-04-03T21:02:49.071Z,1.42
2023-04-03T21:05:16.238Z,1.37
2023-04-03T21:08:19.905Z,1.31
2023-04-03T21:11:23.740Z,1.24
2023-04-03T21:14:27.557Z,1.14
2023-04-03T21:16:53.778Z,1.06
2023-04-03T21:19:20.551Z,0.98
2023-04-03T21:21:47.197Z,0.90
2023-04-03T21:24:16.615Z,0.88
2023-04-03T21:26:43.568Z,0.87
2023-04-03T21:29:10.663Z,0.82
2023-04-03T21:32:06.403Z,0.73
2023-04-03T21:34:32.736Z,0.68
2023-04-03T21:37:07.012Z,0.57
2023-04-03T21:39:33.396Z,0.64
2023-04-03T21:42:00.197Z,0.50
2023-04-03T21:44:26.723Z,0.46
2023-04-03T21:46:53.047Z,0.40
2023-04-03T21:49:20.242Z,0.44
2023-04-03T21:51:46.727Z,0.32
2023-04-03T21:54:13.063Z,0.30
2023-04-03T21:56:39.332Z,0.25
2023-04-03T21:59:05.751Z,0.15
2023-04-03T22:01:32.168Z,0.13
2023-04-03T22:03:59.377Z,0.08
2023-04-03T22:06:26.235Z,0.10
2023-04-03T22:08:52.821Z,0.03
2023-04-03T22:11:19.101Z,-0.04
2023-04-03T22:13:45.405Z,-0.14
2023-04-03T22:16:12.377Z,-0.20
2023-04-03T22:18:39.160Z,-0.20
2023-04-03T22:21:06.007Z,-0.27
2023-04-03T22:23:32.310Z,-0.34
2023-04-03T22:26:07.794Z,-0.27
2023-04-03T22:28:37.013Z,-0.31
2023-04-03T22:31:04.637Z,-0.34
2023-04-03T22:33:30.953Z,-0.39
2023-04-03T22:35:57.275Z,-0.39
2023-04-03T22:38:23.596Z,-0.42
2023-04-03T22:41:00.199Z,-0.42
2023-04-03T22:43:27.942Z,-0.44
2023-04-03T22:45:55.251Z,-0.52
2023-04-03T22:48:22.188Z,-0.52
2023-04-03T22:50:48.504Z,-0.56
2023-04-03T22:53:15.782Z,-0.56
2023-04-03T22:55:42.076Z,-0.55
2023-04-03T22:58:08.651Z,-0.61
2023-04-03T23:00:35.016Z,-0.63
2023-04-03T23:03:01.756Z,-0.71
2023-04-03T23:05:28.817Z,-0.70
2023-04-03T23:07:55.132Z,-0.79
2023-04-03T23:10:21.785Z,-0.82
2023-04-03T23:12:48.163Z,-0.89
2023-04-03T23:15:14.469Z,-0.91
2023-04-03T23:17:40.819Z,-0.92
2023-04-03T23:20:07.610Z,-0.87
2023-04-03T23:22:33.891Z,-1.00
2023-04-03T23:25:00.196Z,-1.06
2023-04-03T23:27:26.492Z,-1.01
2023-04-03T23:29:52.775Z,-1.07
2023-04-03T23:32:19.106Z,-1.05
2023-04-03T23:34:45.421Z,-1.06
2023-04-03T23:37:12.322Z,-1.13
2023-04-03T23:39:38.654Z,-1.11
2023-04-03T23:42:05.017Z,-1.17
2023-04-03T23:44:31.299Z,-1.15
2023-04-03T23:46:57.586Z,-1.13
2023-04-03T23:49:23.884Z,-1.11
2023-04-03T23:51:50.248Z,-1.16
2023-04-03T23:54:16.568Z,-1.19
2023-04-03T23:56:42.838Z,-1.19
2023-04-03T23:59:09.128Z,-1.27
